Main page
METAR-TAF:

METAR-TAF

Airports :

Brunei, Brunei

Brunei International Airport

latitude: 04-56N, longitude: 114-56E, elevation: 22 m

Current weather observation

The report was made 25 minutes ago, at 18:30 UTC
Wind 3 kt from the South
Temperature 27°C
Humidity 94%
Pressure 1009 hPa
Visibility: 9000 m
Few clouds at a height of 1500 ft
Broken clouds at a height of 30000 ft

METAR: WBSB 231830Z 19003KT 9000 FEW015 BKN300 27/26 Q1009 NOSIG

Time: 02:55 (18:55 UTC)

Forecast

The report was made 2 hours and 10 minutes ago, at 16:45 UTC
Forecast valid from 23 at 18 UTC to 25 at 00 UTC
Wind 2 kt from the Southwest
Visibility 10 km or more
Few clouds at a height of 1400 ft
Becoming
from 24 at 03 UTC to 24 at 05 UTC
Wind 10 kt from the West/Southwest
Few clouds at a height of 1600 ft
Few clouds at a height of 1700 ft, Cumulonimbus.

TAF: WBSB 231645Z 2318/2500 23002KT 9999 FEW014 BECMG 2403/2405 25010KT FEW016 FEW017CB

Weather observations and forecasts of more than 4000 airports (METAR and TAF reports).

The available stations are represented by yellow and red dots on the map.

Hover mouse over dot to see the name of the station.

Then click to see weather observations and forecasts.

To change the map : click on the green buttons with a black cross to zoom in, on the green button with a dash to zoom out, or on the green arrows for adjacent maps.


METAR-TAF: